Meteo Giornale » Osservazioni meteo Svizzera » Samedan

ore: 03:20 - Osservazioni Meteo Samedan
Lat. 46° 32' N Lon. 9° 53' E Alt. 1706 metri s.l.m.

coperto_pioggia Europe/Zurich

6 °C

Pioggia Debole

Temp. 24 Ore

5 °C

17 °C

Nord/Nord-Est

9.3 Km/h

Dew point 5 °C

Umidità 93 %

Visibilità  10 Km

Il sole sorge alle ore 07:20

Il sole tramonta alle ore 18:58

Data e Ora Cielo e Fenomeni T °C DP °C Um. % Pres. hPa Vis. km Vento km/h
Oggi h: 03:20 coperto_pioggia Pioggia Debole 6 5 93 1024 10 N/NE 9.3
Oggi h: 02:50 coperto_pioggia Pioggia Debole 7 4 81 1024 10 N 13
Oggi h: 02:20 coperto_pioggia Pioggia Debole 8 3 70 1023 10 N/NE 14.8
Oggi h: 01:50 nuvoloso Nuvoloso 9 2 61 1023 10 N 18.5
Oggi h: 01:20 molto_nuvoloso Molto Nuvoloso 8 2 65 1023 10 NE 18.5
Oggi h: 00:50 molto_nuvoloso Molto Nuvoloso 8 3 70 1023 10 N/NE 18.5
Oggi h: 00:20 molto_nuvoloso Molto Nuvoloso 9 1 57 1023 10 N/NE 24
Ieri h: 23:50 nuvoloso Nuvoloso 8 0 56 1024 10 N 9.3
Ieri h: 23:20 molto_nuvoloso Molto Nuvoloso 11 -1 43 1024 10 N 3.7
Ieri h: 22:50 poco_nuvoloso Poco Nuvoloso 11 -1 43 1024 10 NO 18.5
Ieri h: 22:20 sereno Sereno 11 -1 43 1024 10 N/NO 14.8
Ieri h: 21:50 sereno Sereno 12 -0 43 1024 10 N 16.7
Ieri h: 21:20 sereno Sereno 12 0 43 1024 10 N 11.1
Ieri h: 20:50 poco_nuvoloso Poco Nuvoloso 12 0 43 1024 10 N 16.7
Ieri h: 20:20 poco_nuvoloso Poco Nuvoloso 12 1 46 1023 10 N 14.8
Ieri h: 19:50 poco_nuvoloso Poco Nuvoloso 13 1 43 1023 10 O/NO 18.5
Ieri h: 19:20 poco_nuvoloso Poco Nuvoloso 13 2 47 1022 10 N/NO 20.3
Ieri h: 18:50 poco_nuvoloso Poco Nuvoloso 13 -1 37 1022 10 N/NE 20.3
Ieri h: 18:20 poco_nuvoloso Poco Nuvoloso 13 0 40 1022 10 NE 20.3
Ieri h: 17:50 poco_nuvoloso Poco Nuvoloso 15 1 38 1022 10 NE 13
Ieri h: 17:20 poco_nuvoloso Poco Nuvoloso 15 2 41 1022 10 N/NE 14.8
Ieri h: 16:50 nuvoloso Nuvoloso 16 1 36 1022 10 N/NE 18.5
Ieri h: 16:20 nuvoloso Nuvoloso 16 1 36 1022 10 N 5.5
Ieri h: 15:50 nuvoloso Nuvoloso 16 1 36 1023 10 N/NE 16.7
Ieri h: 15:20 nuvoloso Nuvoloso 16 1 36 1023 10 N 7.4
Ieri h: 14:50 nuvoloso Nuvoloso 17 2 36 1023 10 N/NE 7.4
Ieri h: 14:20 nuvoloso Nuvoloso 17 3 39 1023 10 N 9.3
Ieri h: 13:50 molto_nuvoloso Molto Nuvoloso 16 3 41 1023 10 N 5.5
Ieri h: 13:20 molto_nuvoloso Molto Nuvoloso 17 3 39 1024 10 E 7.4
Ieri h: 12:50 nuvoloso Nuvoloso 15 1 38 1024 10 N 7.4
Ieri h: 12:20 nuvoloso Nuvoloso 15 4 47 1024 10 NE 13
Ieri h: 11:50 molto_nuvoloso Molto Nuvoloso 13 8 71 1024 10 N/NE 11.1
Ieri h: 11:20 nuvoloso Nuvoloso 11 7 76 1024 10 N/NE 9.3
Ieri h: 10:50 molto_nuvoloso Molto Nuvoloso 10 7 81 1025 10 NE 7.4
Ieri h: 10:20 molto_nuvoloso Molto Nuvoloso 9 7 87 1025 10 NE 7.4
Ieri h: 09:50 molto_nuvoloso Molto Nuvoloso 9 6 81 1025 10 SO 7.4
Ieri h: 09:20 molto_nuvoloso Molto Nuvoloso 8 6 87 1025 10 S/SO 7.4
Ieri h: 08:50 molto_nuvoloso Molto Nuvoloso 8 6 87 1025 10 S/SO 7.4
Ieri h: 08:20 molto_nuvoloso Molto Nuvoloso 7 6 93 1025 10 S/SO 7.4
Ieri h: 07:50 molto_nuvoloso Molto Nuvoloso 7 6 93 1024 10 N 3.7
Ieri h: 07:20 molto_nuvoloso Molto Nuvoloso 7 6 93 1024 10 N 5.5
Ieri h: 06:50 molto_nuvoloso Molto Nuvoloso 8 5 81 1024 10 N/NO 13
Ieri h: 06:20 molto_nuvoloso Molto Nuvoloso 8 4 75 1024 10 N/NE 24
Ieri h: 05:50 molto_nuvoloso Molto Nuvoloso 6 4 86 1024 10 N/NE 16.7
Ieri h: 05:20 molto_nuvoloso Molto Nuvoloso 6 5 93 1024 10 N/NE 18.5
Ieri h: 04:50 molto_nuvoloso Molto Nuvoloso 10 4 66 1024 10 N 13
Ieri h: 04:20 coperto Coperto 5 5 100 1024 10 N 3.7
Ieri h: 03:50 coperto_pioggia Pioviggine Leggera 5 5 100 1023 10 N 1.8